createdAt,value
2018-08-09T00:00:24.393Z,20.60
2018-08-09T00:02:52.094Z,20.20
2018-08-09T00:05:19.782Z,20.50
2018-08-09T00:07:47.506Z,20.40
2018-08-09T00:10:15.179Z,20.20
2018-08-09T00:12:42.999Z,20.30
2018-08-09T00:15:10.710Z,20.40
2018-08-09T00:17:38.395Z,20.40
2018-08-09T00:20:06.062Z,20.40
2018-08-09T00:22:33.810Z,20.20
2018-08-09T00:25:01.483Z,20.20
2018-08-09T00:27:29.217Z,20.50
2018-08-09T00:29:56.939Z,20.50
2018-08-09T00:32:24.699Z,20.10
2018-08-09T00:34:52.420Z,20.40
2018-08-09T00:37:20.174Z,20.40
2018-08-09T00:39:47.891Z,20.20
2018-08-09T00:42:15.583Z,20.20
2018-08-09T00:44:43.420Z,20.40
2018-08-09T00:47:11.234Z,20.40
2018-08-09T00:49:38.999Z,20.50
2018-08-09T00:52:06.908Z,20.50
2018-08-09T00:54:34.653Z,20.50
2018-08-09T00:57:02.423Z,20.40
2018-08-09T00:59:30.175Z,20.20
2018-08-09T01:01:57.906Z,20.20
2018-08-09T01:04:25.824Z,20.20
2018-08-09T01:06:53.563Z,20.40
2018-08-09T01:09:21.333Z,20.40
2018-08-09T01:11:49.096Z,20.20
2018-08-09T01:14:17.064Z,20.30
2018-08-09T01:16:44.858Z,20.30
2018-08-09T01:19:12.644Z,20.70
2018-08-09T01:21:40.423Z,20.10
2018-08-09T01:24:08.153Z,20.10
2018-08-09T01:26:35.895Z,20.10
2018-08-09T01:29:03.696Z,20.40
2018-08-09T01:31:33.764Z,20.60
2018-08-09T01:34:02.823Z,20.50
2018-08-09T01:36:30.562Z,20.40
2018-08-09T01:38:58.370Z,20.30
2018-08-09T01:41:26.455Z,20.10
2018-08-09T01:43:59.498Z,20.30
2018-08-09T01:46:27.647Z,20.20
2018-08-09T01:48:55.971Z,20.20
2018-08-09T01:51:24.097Z,20.10
2018-08-09T01:53:52.446Z,20.10
2018-08-09T01:56:20.247Z,20.20
2018-08-09T01:58:48.700Z,20.50
2018-08-09T02:01:16.519Z,20.30
2018-08-09T02:03:44.859Z,20.20
2018-08-09T02:06:13.347Z,20.10
2018-08-09T02:08:41.036Z,20.40
2018-08-09T02:11:09.825Z,20.30
2018-08-09T02:13:37.611Z,19.90
2018-08-09T02:16:05.579Z,19.90
2018-08-09T02:18:33.323Z,19.80
2018-08-09T02:21:01.111Z,20.20
2018-08-09T02:23:28.835Z,20.10
2018-08-09T02:25:56.598Z,20.30
2018-08-09T02:28:24.347Z,20.40
2018-08-09T02:30:52.113Z,20.30
2018-08-09T02:33:19.829Z,20.40
2018-08-09T02:35:47.575Z,20.40
2018-08-09T02:38:15.322Z,20.50
2018-08-09T02:40:43.031Z,20.20
2018-08-09T02:43:10.739Z,20.10
2018-08-09T02:45:38.477Z,20.40
2018-08-09T02:48:06.273Z,20.20
2018-08-09T02:50:34.023Z,20.20
2018-08-09T02:53:01.779Z,20.30
2018-08-09T02:55:29.547Z,20.10
2018-08-09T02:57:57.264Z,20.00
2018-08-09T03:00:24.954Z,19.70
2018-08-09T03:02:52.683Z,19.60
2018-08-09T03:05:20.476Z,19.70
2018-08-09T03:07:48.251Z,19.60
2018-08-09T03:10:16.027Z,19.80
2018-08-09T03:12:43.795Z,19.70
2018-08-09T03:15:11.519Z,19.70
2018-08-09T03:17:39.283Z,19.90
2018-08-09T03:20:07.074Z,19.70
2018-08-09T03:22:34.863Z,19.80
2018-08-09T03:25:02.661Z,20.30
2018-08-09T03:27:30.403Z,20.40
2018-08-09T03:29:58.168Z,20.30
2018-08-09T03:32:25.926Z,20.20
2018-08-09T03:34:53.660Z,20.20
2018-08-09T03:37:21.419Z,20.90
2018-08-09T03:39:49.170Z,20.70
2018-08-09T03:42:16.879Z,20.90
2018-08-09T03:44:44.603Z,20.90
2018-08-09T03:47:12.307Z,20.90
2018-08-09T03:49:40.044Z,20.90
2018-08-09T03:52:07.841Z,20.80
2018-08-09T03:54:35.559Z,21.00
2018-08-09T03:57:03.306Z,21.30
2018-08-09T03:59:31.031Z,21.20
2018-08-09T04:01:58.751Z,21.00
2018-08-09T04:04:26.469Z,21.10
2018-08-09T04:06:54.219Z,21.10
2018-08-09T04:09:21.925Z,20.90
2018-08-09T04:11:49.709Z,20.90
2018-08-09T04:14:17.435Z,20.90
2018-08-09T04:16:45.212Z,20.70
2018-08-09T04:19:12.915Z,20.70
2018-08-09T04:21:40.733Z,20.80
2018-08-09T04:24:08.447Z,20.90
2018-08-09T04:26:36.165Z,21.00
2018-08-09T04:29:03.983Z,20.80
2018-08-09T04:31:31.711Z,20.70
2018-08-09T04:33:59.477Z,20.80
2018-08-09T04:36:27.292Z,20.70
2018-08-09T04:38:55.068Z,20.80
2018-08-09T04:41:22.791Z,20.80
2018-08-09T04:43:50.582Z,20.90
2018-08-09T04:46:18.336Z,20.90
2018-08-09T04:48:46.075Z,21.20
2018-08-09T04:51:13.835Z,20.90
2018-08-09T04:53:41.578Z,21.10
2018-08-09T04:56:09.288Z,20.80
2018-08-09T04:58:37.055Z,21.10
2018-08-09T05:01:04.791Z,20.80
2018-08-09T05:03:32.561Z,20.80
2018-08-09T05:06:00.276Z,20.90
2018-08-09T05:08:28.056Z,20.80
2018-08-09T05:10:55.795Z,20.70
2018-08-09T05:13:23.543Z,20.70
2018-08-09T05:15:51.282Z,21.00
2018-08-09T05:18:19.103Z,20.70
2018-08-09T05:20:46.829Z,20.70
2018-08-09T05:23:14.713Z,20.70
2018-08-09T05:25:42.330Z,20.90
2018-08-09T05:28:10.080Z,20.90
2018-08-09T05:30:37.868Z,21.10
2018-08-09T05:33:05.677Z,21.10
2018-08-09T05:35:33.428Z,21.10
2018-08-09T05:38:01.157Z,21.50
2018-08-09T05:40:28.926Z,21.60
2018-08-09T05:42:56.672Z,21.60
2018-08-09T05:45:24.443Z,21.40
2018-08-09T05:47:52.183Z,21.10
2018-08-09T05:50:19.932Z,21.70
2018-08-09T05:52:47.719Z,21.70
2018-08-09T05:55:15.427Z,22.00
2018-08-09T05:57:43.178Z,22.10
2018-08-09T06:00:11.888Z,22.20
2018-08-09T06:02:39.671Z,22.40
2018-08-09T06:05:07.733Z,22.40
2018-08-09T06:07:35.518Z,22.40
2018-08-09T06:10:04.105Z,22.60
2018-08-09T06:12:32.554Z,22.90
2018-08-09T06:15:00.307Z,22.80
2018-08-09T06:17:28.061Z,22.90
2018-08-09T06:19:55.798Z,22.80
2018-08-09T06:22:23.571Z,22.60
2018-08-09T06:24:51.286Z,22.50
2018-08-09T06:27:19.052Z,22.80
2018-08-09T06:29:46.820Z,22.70
2018-08-09T06:32:14.695Z,22.70
2018-08-09T06:34:42.450Z,23.00
2018-08-09T06:37:10.250Z,22.90
2018-08-09T06:39:38.088Z,23.20
2018-08-09T06:42:05.951Z,23.30
2018-08-09T06:44:33.715Z,23.40
2018-08-09T06:47:01.449Z,23.20
2018-08-09T06:49:29.210Z,23.30
2018-08-09T06:51:56.982Z,23.40
2018-08-09T06:54:24.778Z,23.50
2018-08-09T06:56:52.539Z,23.60
2018-08-09T06:59:20.312Z,23.40
2018-08-09T07:01:48.079Z,23.50
2018-08-09T07:04:15.872Z,23.50
2018-08-09T07:06:43.605Z,23.60
2018-08-09T07:09:11.454Z,23.90
2018-08-09T07:11:39.571Z,24.20
2018-08-09T07:14:07.480Z,24.20
2018-08-09T07:16:35.296Z,24.50
2018-08-09T07:19:03.115Z,24.50
2018-08-09T07:21:30.866Z,24.50
2018-08-09T07:23:58.607Z,24.60
2018-08-09T07:26:26.412Z,24.70
2018-08-09T07:28:54.140Z,24.90
2018-08-09T07:31:22.360Z,24.80
2018-08-09T07:33:50.101Z,24.80
2018-08-09T07:36:17.794Z,25.00
2018-08-09T07:38:45.522Z,24.40
2018-08-09T07:41:13.263Z,25.00
2018-08-09T07:43:40.958Z,25.10
2018-08-09T07:46:09.268Z,24.90
2018-08-09T07:48:37.033Z,24.90
2018-08-09T07:51:04.956Z,24.90
2018-08-09T07:53:32.666Z,24.50
2018-08-09T07:56:00.447Z,24.90
2018-08-09T07:58:28.234Z,24.50
2018-08-09T08:00:56.172Z,24.60
2018-08-09T08:03:23.891Z,24.60
2018-08-09T08:05:51.763Z,25.00
2018-08-09T08:08:19.495Z,25.40
2018-08-09T08:10:48.539Z,25.80
2018-08-09T08:13:17.300Z,26.00
2018-08-09T08:15:45.028Z,25.90
2018-08-09T08:18:12.795Z,26.40
2018-08-09T08:20:40.570Z,26.70
2018-08-09T08:23:08.350Z,26.90
2018-08-09T08:25:36.095Z,27.00
2018-08-09T08:28:03.888Z,26.70
2018-08-09T08:30:31.616Z,27.60
2018-08-09T08:32:59.295Z,29.00
2018-08-09T08:35:26.998Z,30.20
2018-08-09T08:37:54.740Z,31.30
2018-08-09T08:40:22.432Z,31.00
2018-08-09T08:42:50.167Z,30.90
2018-08-09T08:45:17.902Z,29.70
2018-08-09T08:47:45.642Z,28.30
2018-08-09T08:50:13.391Z,28.20
2018-08-09T08:52:41.323Z,29.00
2018-08-09T08:55:10.550Z,28.20
2018-08-09T08:57:38.286Z,28.10
2018-08-09T09:00:07.599Z,27.50
2018-08-09T09:02:35.750Z,26.90
2018-08-09T09:05:04.330Z,26.80
2018-08-09T09:07:32.067Z,26.80
2018-08-09T09:09:59.767Z,27.00
2018-08-09T09:12:27.458Z,27.40
2018-08-09T09:14:55.213Z,28.00
2018-08-09T09:17:22.907Z,27.80
2018-08-09T09:19:50.617Z,28.00
2018-08-09T09:22:18.343Z,28.10
2018-08-09T09:24:46.062Z,28.60
2018-08-09T09:29:40.963Z,29.00
2018-08-09T09:32:08.654Z,29.10
2018-08-09T09:34:36.402Z,29.30
2018-08-09T09:37:04.126Z,30.80
2018-08-09T09:39:31.837Z,31.80
2018-08-09T09:41:59.551Z,33.30
2018-08-09T09:44:27.293Z,34.30
2018-08-09T09:46:54.993Z,33.80
2018-08-09T09:49:22.675Z,34.50
2018-08-09T09:51:50.383Z,35.20
2018-08-09T09:54:18.146Z,34.90
2018-08-09T09:56:46.198Z,35.10
2018-08-09T09:59:13.878Z,35.90
2018-08-09T10:01:41.639Z,35.60
2018-08-09T10:04:09.307Z,35.50
2018-08-09T10:06:37.111Z,36.90
2018-08-09T10:09:08.679Z,37.00
2018-08-09T10:11:36.446Z,36.50
2018-08-09T10:14:04.214Z,35.70
2018-08-09T10:16:31.898Z,35.30
2018-08-09T10:18:59.615Z,35.70
2018-08-09T10:21:27.318Z,37.10
2018-08-09T10:23:55.026Z,36.90
2018-08-09T10:26:22.688Z,35.20
2018-08-09T10:28:50.354Z,32.80
2018-08-09T10:31:18.023Z,32.10
2018-08-09T10:33:45.718Z,32.00
2018-08-09T10:36:13.392Z,31.40
2018-08-09T10:38:41.107Z,31.00
2018-08-09T10:41:09.259Z,31.00
2018-08-09T10:43:36.979Z,31.30
2018-08-09T10:46:04.671Z,31.20
2018-08-09T10:48:32.345Z,30.20
2018-08-09T10:51:00.084Z,29.80
2018-08-09T10:53:27.786Z,30.00
2018-08-09T10:55:55.474Z,29.90
2018-08-09T10:58:23.202Z,30.30
2018-08-09T11:00:50.876Z,30.80
2018-08-09T11:03:18.564Z,31.40
2018-08-09T11:05:46.898Z,31.70
2018-08-09T11:08:14.558Z,32.60
2018-08-09T11:10:42.256Z,32.20
2018-08-09T11:13:09.938Z,32.70
2018-08-09T11:15:37.644Z,33.30
2018-08-09T11:18:05.359Z,33.00
2018-08-09T11:20:33.250Z,32.20
2018-08-09T11:23:01.024Z,30.40
2018-08-09T11:25:28.713Z,30.50
2018-08-09T11:27:56.436Z,30.80
2018-08-09T11:30:24.098Z,31.60
2018-08-09T11:32:51.810Z,31.50
2018-08-09T11:35:19.486Z,31.00
2018-08-09T11:37:47.215Z,31.00
2018-08-09T11:40:14.934Z,31.40
2018-08-09T11:42:42.660Z,31.20
2018-08-09T11:45:10.465Z,31.10
2018-08-09T11:47:38.170Z,31.00
2018-08-09T11:50:06.261Z,31.30
2018-08-09T11:52:34.056Z,30.70
2018-08-09T11:55:01.876Z,30.60
2018-08-09T11:57:29.639Z,30.50
2018-08-09T11:59:57.375Z,30.60
2018-08-09T12:02:25.087Z,30.00
2018-08-09T12:04:52.848Z,30.00
2018-08-09T12:07:20.595Z,30.00
2018-08-09T12:09:48.349Z,29.80
2018-08-09T12:12:16.157Z,30.00
2018-08-09T12:14:44.067Z,29.90
2018-08-09T12:17:11.815Z,29.80
2018-08-09T12:19:39.681Z,29.70
2018-08-09T12:22:07.550Z,29.90
2018-08-09T12:24:35.408Z,29.60
2018-08-09T12:27:03.259Z,29.80
2018-08-09T12:29:31.073Z,29.80
2018-08-09T12:31:58.876Z,29.50
2018-08-09T12:34:26.606Z,29.80
2018-08-09T12:36:54.431Z,29.90
2018-08-09T12:39:22.164Z,30.00
2018-08-09T12:41:50.044Z,29.90
2018-08-09T12:44:17.837Z,29.90
2018-08-09T12:46:45.661Z,29.80
2018-08-09T12:49:13.437Z,29.80
2018-08-09T12:51:41.277Z,29.80
2018-08-09T12:54:09.095Z,29.70
2018-08-09T12:56:36.928Z,29.80
2018-08-09T12:59:04.768Z,29.70
2018-08-09T13:01:32.611Z,29.30
2018-08-09T13:04:00.373Z,29.20
2018-08-09T13:06:28.138Z,29.30
2018-08-09T13:08:56.031Z,29.10
2018-08-09T13:11:23.856Z,28.90
2018-08-09T13:13:51.735Z,28.70
2018-08-09T13:16:19.555Z,28.20
2018-08-09T13:18:47.419Z,28.10
2018-08-09T13:21:15.879Z,27.50
2018-08-09T13:23:43.731Z,26.80
2018-08-09T13:26:11.534Z,26.20
2018-08-09T13:28:39.420Z,25.80
2018-08-09T13:31:07.223Z,25.60
2018-08-09T13:33:35.115Z,25.30
2018-08-09T13:36:02.967Z,25.00
2018-08-09T13:38:30.852Z,25.00
2018-08-09T13:40:58.677Z,24.70
2018-08-09T13:43:26.495Z,24.80
2018-08-09T13:45:54.301Z,24.80
2018-08-09T13:48:22.076Z,24.60
2018-08-09T13:50:50.837Z,24.50
2018-08-09T13:53:18.626Z,24.20
2018-08-09T13:55:46.436Z,24.60
2018-08-09T13:58:14.208Z,24.50
2018-08-09T14:00:42.029Z,24.70
2018-08-09T14:03:09.809Z,24.60
2018-08-09T14:05:37.612Z,24.60
2018-08-09T14:08:05.579Z,24.60
2018-08-09T14:10:54.061Z,24.80
2018-08-09T14:13:21.853Z,24.60
2018-08-09T14:15:49.724Z,24.30
2018-08-09T14:18:17.533Z,24.80
2018-08-09T14:20:45.320Z,24.60
2018-08-09T14:23:13.166Z,25.10
2018-08-09T14:25:41.027Z,25.30
2018-08-09T14:28:08.772Z,25.30
2018-08-09T14:30:36.582Z,25.50
2018-08-09T14:33:04.686Z,25.50
2018-08-09T14:35:32.507Z,25.60
2018-08-09T14:38:00.395Z,25.70
2018-08-09T14:40:28.222Z,26.10
2018-08-09T14:42:56.072Z,25.70
2018-08-09T14:45:23.976Z,26.00
2018-08-09T14:47:51.920Z,25.60
2018-08-09T14:50:19.715Z,25.30
2018-08-09T14:52:47.539Z,25.30
2018-08-09T14:55:15.434Z,25.30
2018-08-09T14:57:43.277Z,25.60
2018-08-09T15:00:14.959Z,25.40
2018-08-09T15:02:43.408Z,25.50
2018-08-09T15:05:11.270Z,25.20
2018-08-09T15:07:39.119Z,24.90
2018-08-09T15:10:07.254Z,24.90
2018-08-09T15:12:35.095Z,24.90
2018-08-09T15:15:02.979Z,24.80
2018-08-09T15:17:30.836Z,24.80
2018-08-09T15:19:58.860Z,24.80
2018-08-09T15:22:26.682Z,24.80
2018-08-09T15:24:54.479Z,24.60
2018-08-09T15:27:22.323Z,25.10
2018-08-09T15:29:50.064Z,24.90
2018-08-09T15:32:17.836Z,24.80
2018-08-09T15:34:45.716Z,25.30
2018-08-09T15:37:13.575Z,25.00
2018-08-09T15:39:41.387Z,24.70
2018-08-09T15:42:09.172Z,24.80
2018-08-09T15:44:37.009Z,25.10
2018-08-09T15:47:04.805Z,25.00
2018-08-09T15:49:32.715Z,25.20
2018-08-09T15:52:00.535Z,25.00
2018-08-09T15:54:28.350Z,24.90
2018-08-09T15:56:56.161Z,24.70
2018-08-09T15:59:23.957Z,25.10
2018-08-09T16:01:51.911Z,24.60
2018-08-09T16:04:19.776Z,25.00
2018-08-09T16:06:47.648Z,24.60
2018-08-09T16:09:16.944Z,24.60
2018-08-09T16:11:44.999Z,24.60
2018-08-09T16:14:12.945Z,24.40
2018-08-09T16:16:40.767Z,24.80
2018-08-09T16:19:09.023Z,24.30
2018-08-09T16:21:36.852Z,24.20
2018-08-09T16:24:05.135Z,24.30
2018-08-09T16:26:33.355Z,24.70
2018-08-09T16:29:01.190Z,24.10
2018-08-09T16:31:28.976Z,24.50
2018-08-09T16:33:56.916Z,24.70
2018-08-09T16:36:24.776Z,25.10
2018-08-09T16:38:53.020Z,24.60
2018-08-09T16:41:20.963Z,25.00
2018-08-09T16:43:48.791Z,25.10
2018-08-09T16:46:16.707Z,24.70
2018-08-09T16:48:44.536Z,25.00
2018-08-09T16:51:12.867Z,25.10
2018-08-09T16:53:40.686Z,24.80
2018-08-09T16:56:08.535Z,24.70
2018-08-09T16:58:36.392Z,25.00
2018-08-09T17:01:04.197Z,24.70
2018-08-09T17:03:31.984Z,24.70
2018-08-09T17:05:59.879Z,25.20
2018-08-09T17:08:27.639Z,25.10
2018-08-09T17:10:55.539Z,25.40
2018-08-09T17:13:23.319Z,25.40
2018-08-09T17:15:51.230Z,25.50
2018-08-09T17:18:19.279Z,25.90
2018-08-09T17:20:47.188Z,25.60
2018-08-09T17:23:14.979Z,26.00
2018-08-09T17:25:42.794Z,25.80
2018-08-09T17:28:10.603Z,25.70
2018-08-09T17:30:38.520Z,25.70
2018-08-09T17:33:06.360Z,25.80
2018-08-09T17:35:34.202Z,25.80
2018-08-09T17:38:01.963Z,25.60
2018-08-09T17:40:31.613Z,25.60
2018-08-09T17:43:00.214Z,25.60
2018-08-09T17:45:30.312Z,25.60
2018-08-09T17:47:58.544Z,25.40
2018-08-09T17:50:26.394Z,25.40
2018-08-09T17:52:55.849Z,25.20
2018-08-09T17:55:23.606Z,25.20
2018-08-09T17:57:51.523Z,25.10
2018-08-09T18:00:21.900Z,25.00
2018-08-09T18:02:50.112Z,24.70
2018-08-09T18:05:17.996Z,24.90
2018-08-09T18:07:45.909Z,24.80
2018-08-09T18:10:17.535Z,24.60
2018-08-09T18:12:45.991Z,24.70
2018-08-09T18:15:13.896Z,24.40
2018-08-09T18:17:41.828Z,24.40
2018-08-09T18:20:12.152Z,23.90
2018-08-09T18:22:40.220Z,24.00
2018-08-09T18:25:10.065Z,23.80
2018-08-09T18:27:38.003Z,23.60
2018-08-09T18:30:09.222Z,23.60
2018-08-09T18:32:37.408Z,23.50
2018-08-09T18:35:06.087Z,23.40
2018-08-09T18:37:33.856Z,23.30
2018-08-09T18:40:01.785Z,23.20
2018-08-09T18:42:29.704Z,23.30
2018-08-09T18:44:57.552Z,22.90
2018-08-09T18:47:25.466Z,22.70
2018-08-09T18:49:53.292Z,22.50
2018-08-09T18:52:21.099Z,22.40
2018-08-09T18:54:48.936Z,22.60
2018-08-09T18:57:16.691Z,22.20
2018-08-09T18:59:44.462Z,22.20
2018-08-09T19:02:12.210Z,22.10
2018-08-09T19:04:40.079Z,22.10
2018-08-09T19:07:07.911Z,22.20
2018-08-09T19:09:35.803Z,22.10
2018-08-09T19:12:03.695Z,21.90
2018-08-09T19:14:32.283Z,22.00
2018-08-09T19:17:00.174Z,21.50
2018-08-09T19:19:28.036Z,21.70
2018-08-09T19:21:55.937Z,21.60
2018-08-09T19:24:23.859Z,21.80
2018-08-09T19:26:52.102Z,21.70
2018-08-09T19:29:19.906Z,21.80
2018-08-09T19:31:47.767Z,21.80
2018-08-09T19:34:15.667Z,21.40
2018-08-09T19:36:43.552Z,21.70
2018-08-09T19:39:13.245Z,21.90
2018-08-09T19:41:41.915Z,21.80
2018-08-09T19:44:09.825Z,21.60
2018-08-09T19:46:37.686Z,21.50
2018-08-09T19:49:05.549Z,21.40
2018-08-09T19:51:33.446Z,21.50
2018-08-09T19:54:01.295Z,21.10
2018-08-09T19:56:29.107Z,21.40
2018-08-09T19:58:56.950Z,21.20
2018-08-09T20:01:24.846Z,21.40
2018-08-09T20:03:52.680Z,21.10
2018-08-09T20:06:20.493Z,21.10
2018-08-09T20:08:48.317Z,21.00
2018-08-09T20:11:16.103Z,21.20
2018-08-09T20:13:43.931Z,21.10
2018-08-09T20:16:11.765Z,21.10
2018-08-09T20:18:39.612Z,21.20
2018-08-09T20:21:07.522Z,21.20
2018-08-09T20:23:35.325Z,20.90
2018-08-09T20:26:03.292Z,21.00
2018-08-09T20:28:31.118Z,21.20
2018-08-09T20:30:59.016Z,21.30
2018-08-09T20:33:26.812Z,21.10
2018-08-09T20:35:54.659Z,21.10
2018-08-09T20:38:22.421Z,21.10
2018-08-09T20:40:50.301Z,20.80
2018-08-09T20:43:18.069Z,21.10
2018-08-09T20:45:45.892Z,21.00
2018-08-09T20:48:13.677Z,21.10
2018-08-09T20:50:41.428Z,20.70
2018-08-09T20:53:09.311Z,20.70
2018-08-09T20:55:37.208Z,20.60
2018-08-09T20:58:05.116Z,20.50
2018-08-09T21:00:34.327Z,20.60
2018-08-09T21:03:02.521Z,20.20
2018-08-09T21:05:33.675Z,20.30
2018-08-09T21:08:01.612Z,19.90
2018-08-09T21:10:29.704Z,19.80
2018-08-09T21:12:57.780Z,20.00
2018-08-09T21:15:25.783Z,19.70
2018-08-09T21:17:53.643Z,19.20
2018-08-09T21:20:21.632Z,19.20
2018-08-09T21:22:49.986Z,19.00
2018-08-09T21:25:17.989Z,19.10
2018-08-09T21:27:46.495Z,19.20
2018-08-09T21:30:16.349Z,19.00
2018-08-09T21:32:44.786Z,18.90
2018-08-09T21:35:12.692Z,18.80
2018-08-09T21:37:41.215Z,18.40
2018-08-09T21:40:10.338Z,18.70
2018-08-09T21:42:38.110Z,18.50
2018-08-09T21:45:08.087Z,18.60
2018-08-09T21:47:36.073Z,18.70
2018-08-09T21:50:05.563Z,19.00
2018-08-09T21:52:33.342Z,18.70
2018-08-09T21:55:01.075Z,19.00
2018-08-09T21:57:28.836Z,19.00
2018-08-09T21:59:56.616Z,19.00
2018-08-09T22:02:24.433Z,18.70
2018-08-09T22:04:57.899Z,19.00
2018-08-09T22:07:31.294Z,19.00
2018-08-09T22:10:04.784Z,19.10
2018-08-09T22:12:38.224Z,18.80
2018-08-09T22:15:11.609Z,19.00
2018-08-09T22:17:45.003Z,18.80
2018-08-09T22:20:18.287Z,18.40
2018-08-09T22:22:46.144Z,18.60
2018-08-09T22:25:13.919Z,19.00
2018-08-09T22:27:41.669Z,18.60
2018-08-09T22:30:13.127Z,18.70
2018-08-09T22:32:40.856Z,18.70
2018-08-09T22:35:08.663Z,18.50
2018-08-09T22:37:36.406Z,18.50
2018-08-09T22:40:04.319Z,18.50
2018-08-09T22:42:32.034Z,18.30
2018-08-09T22:44:59.751Z,18.30
2018-08-09T22:47:27.491Z,18.50
2018-08-09T22:49:55.287Z,18.80
2018-08-09T22:52:22.980Z,18.50
2018-08-09T22:54:50.740Z,18.20
2018-08-09T22:57:18.520Z,18.20
2018-08-09T22:59:46.278Z,18.10
2018-08-09T23:02:14.014Z,18.40
2018-08-09T23:04:41.817Z,18.10
2018-08-09T23:07:09.507Z,18.40
2018-08-09T23:09:37.363Z,18.40
2018-08-09T23:12:05.261Z,18.20
2018-08-09T23:14:33.090Z,18.30
2018-08-09T23:17:00.875Z,18.20
2018-08-09T23:19:28.659Z,18.40
2018-08-09T23:21:56.421Z,18.30
2018-08-09T23:24:24.172Z,18.20
2018-08-09T23:26:51.927Z,17.90
2018-08-09T23:29:19.682Z,17.60
2018-08-09T23:31:47.448Z,17.60
2018-08-09T23:34:15.314Z,17.20
2018-08-09T23:36:43.035Z,17.10
2018-08-09T23:39:12.177Z,16.90
2018-08-09T23:41:40.154Z,16.40
2018-08-09T23:44:07.883Z,15.80
2018-08-09T23:46:35.696Z,16.00
2018-08-09T23:49:03.476Z,16.20
2018-08-09T23:51:31.259Z,16.10
2018-08-09T23:53:59.059Z,16.10
2018-08-09T23:56:26.846Z,16.20
2018-08-09T23:58:54.595Z,16.10
